createdAt,value
2022-08-09T01:12:32.669Z,24.20
2022-08-09T01:22:46.720Z,19.90
2022-08-09T01:26:30.184Z,16.80
2022-08-09T01:30:00.817Z,16.40
2022-08-09T01:36:47.049Z,46.60
2022-08-09T02:00:35.424Z,35.40
2022-08-09T02:21:07.214Z,20.20
2022-08-09T02:31:42.323Z,15.10
2022-08-09T03:05:39.069Z,10.60
2022-08-09T03:12:59.825Z,10.50
2022-08-09T03:16:23.485Z,11.10
2022-08-09T03:19:58.169Z,12.30
2022-08-09T03:23:31.266Z,9.40
2022-08-09T03:26:47.204Z,7.90
2022-08-09T03:30:23.648Z,8.20
2022-08-09T03:33:58.696Z,7.30
2022-08-09T03:37:55.242Z,8.30
2022-08-09T03:41:08.503Z,8.20
2022-08-09T03:44:37.842Z,8.50
2022-08-09T03:47:55.162Z,7.00
2022-08-09T03:51:57.643Z,9.10
2022-08-09T05:06:55.157Z,9.90
2022-08-09T05:10:23.749Z,10.00
2022-08-09T05:13:52.233Z,9.50
2022-08-09T05:18:42.265Z,13.30
2022-08-09T05:21:22.777Z,12.30
2022-08-09T05:24:53.581Z,6.70
2022-08-09T05:28:29.677Z,7.50
2022-08-09T05:31:57.065Z,7.20
2022-08-09T05:35:27.367Z,10.70
2022-08-09T05:38:57.862Z,8.60
2022-08-09T05:42:28.691Z,10.00
2022-08-09T05:45:58.827Z,15.10
2022-08-09T05:50:24.087Z,7.30
2022-08-09T06:51:54.742Z,10.40
2022-08-09T06:55:24.365Z,6.70
2022-08-09T07:00:56.409Z,10.20
2022-08-09T07:02:43.880Z,10.00
2022-08-09T07:06:04.705Z,12.50
2022-08-09T07:09:54.233Z,9.60
2022-08-09T07:13:28.237Z,11.20
2022-08-09T07:41:11.924Z,7.60
2022-08-09T08:01:52.842Z,5.90
2022-08-09T08:05:18.865Z,7.30
2022-08-09T08:09:04.567Z,9.60
2022-08-09T08:36:40.123Z,6.70
2022-08-09T08:40:09.172Z,8.40
2022-08-09T08:43:39.615Z,8.90
2022-08-09T08:47:05.074Z,10.10
2022-08-09T08:50:41.679Z,10.10
2022-08-09T08:54:20.570Z,10.60
2022-08-09T08:57:56.813Z,6.60
2022-08-09T09:26:03.013Z,5.20
2022-08-09T09:58:02.472Z,5.50
2022-08-09T10:01:02.638Z,8.50
2022-08-09T10:04:30.848Z,9.90
2022-08-09T10:08:27.382Z,6.30
2022-08-09T10:15:25.521Z,6.40
2022-08-09T10:22:33.403Z,5.90
2022-08-09T10:39:49.337Z,8.30
2022-08-09T10:46:55.045Z,6.60
2022-08-09T10:50:30.978Z,10.00
2022-08-09T10:54:05.190Z,5.40
2022-08-09T11:18:19.323Z,8.60
2022-08-09T11:25:02.436Z,5.30
2022-08-09T11:28:34.653Z,3.80
2022-08-09T11:32:19.019Z,7.60
2022-08-09T11:35:50.404Z,4.80
2022-08-09T11:39:13.393Z,5.90
2022-08-09T11:42:48.727Z,3.90
2022-08-09T11:46:33.135Z,6.40
2022-08-09T11:50:53.205Z,5.20
2022-08-09T11:54:04.275Z,5.00
2022-08-09T11:58:00.892Z,4.90
2022-08-09T12:02:18.306Z,5.80
2022-08-09T12:05:05.988Z,6.40
2022-08-09T12:19:25.429Z,5.60
2022-08-09T12:22:38.884Z,4.30
2022-08-09T12:26:19.760Z,6.10
2022-08-09T12:30:02.116Z,8.30
2022-08-09T12:33:59.113Z,5.50
2022-08-09T12:37:33.431Z,6.90
2022-08-09T13:04:45.554Z,3.50
2022-08-09T13:08:04.104Z,2.20
2022-08-09T13:11:23.384Z,4.80
2022-08-09T13:14:41.192Z,6.10
2022-08-09T13:18:02.982Z,4.90
2022-08-09T13:21:03.775Z,5.10
2022-08-09T13:24:42.214Z,4.70
2022-08-09T13:27:24.029Z,5.30
2022-08-09T13:30:51.001Z,6.40
2022-08-09T13:33:59.286Z,4.50
2022-08-09T13:36:43.415Z,5.70
2022-08-09T13:41:54.897Z,3.10
2022-08-09T13:43:05.217Z,5.50
2022-08-09T13:46:42.400Z,4.50
2022-08-09T13:48:57.402Z,3.70
2022-08-09T13:51:34.807Z,7.90
2022-08-09T13:54:05.570Z,6.50
2022-08-09T13:56:39.728Z,5.10
2022-08-09T13:59:37.100Z,5.00
2022-08-09T14:02:25.469Z,4.80
2022-08-09T14:06:01.185Z,4.40
2022-08-09T14:08:06.307Z,4.70
2022-08-09T14:10:50.372Z,4.30
2022-08-09T14:14:14.818Z,4.10
2022-08-09T14:16:54.510Z,4.10
2022-08-09T14:19:40.970Z,3.40
2022-08-09T14:22:48.106Z,4.60
2022-08-09T14:25:26.295Z,7.50
2022-08-09T14:28:16.305Z,8.90
2022-08-09T14:31:09.073Z,4.00
2022-08-09T14:33:57.542Z,4.00
2022-08-09T14:36:27.109Z,4.80
2022-08-09T14:39:08.290Z,6.40
2022-08-09T14:41:55.714Z,4.60
2022-08-09T14:45:00.244Z,4.50
2022-08-09T14:47:58.056Z,5.30
2022-08-09T14:50:37.076Z,5.50
2022-08-09T14:53:20.388Z,6.20
2022-08-09T14:56:04.549Z,7.10
2022-08-09T14:58:34.580Z,13.30
2022-08-09T15:01:47.013Z,6.60
2022-08-09T15:04:47.907Z,6.70
2022-08-09T15:08:06.423Z,9.20
2022-08-09T15:11:00.837Z,6.80
2022-08-09T15:14:04.363Z,4.80
2022-08-09T15:17:12.407Z,5.00
2022-08-09T15:20:06.414Z,5.40
2022-08-09T15:24:01.492Z,3.80
2022-08-09T15:26:31.191Z,4.30
2022-08-09T15:30:56.876Z,8.40
2022-08-09T15:32:42.089Z,4.00
2022-08-09T15:36:14.464Z,5.40
2022-08-09T15:39:53.769Z,6.30
2022-08-09T15:43:14.194Z,7.70
2022-08-09T15:46:43.658Z,6.30
2022-08-09T15:50:04.172Z,5.00
2022-08-09T15:54:05.731Z,7.20
2022-08-09T15:57:35.778Z,3.80
2022-08-09T16:49:16.869Z,7.50
2022-08-09T16:52:20.626Z,8.80
2022-08-09T16:56:00.381Z,6.40
2022-08-09T16:59:21.384Z,8.10
2022-08-09T17:02:48.631Z,7.40
2022-08-09T17:06:31.539Z,9.00
2022-08-09T17:10:02.211Z,16.40
2022-08-09T17:33:21.905Z,8.10
2022-08-09T17:46:40.332Z,5.50
2022-08-09T17:53:22.568Z,5.70
2022-08-09T17:56:51.279Z,11.50
2022-08-09T18:30:40.180Z,7.50
2022-08-09T18:52:44.469Z,13.30
2022-08-09T19:13:16.917Z,10.60
2022-08-09T19:16:42.343Z,13.80
2022-08-09T19:20:20.202Z,12.60
2022-08-09T19:24:33.390Z,9.40
2022-08-09T19:27:40.819Z,18.20
2022-08-09T19:31:00.598Z,15.70
2022-08-09T20:04:26.119Z,10.60
2022-08-09T20:21:56.415Z,11.40
2022-08-09T20:25:22.365Z,9.80
2022-08-09T20:28:34.462Z,11.30
2022-08-09T20:32:30.727Z,11.80
2022-08-09T20:36:06.044Z,10.80
2022-08-09T20:40:14.042Z,14.80
2022-08-09T20:49:46.099Z,10.50
2022-08-09T20:53:02.180Z,16.90
2022-08-09T20:56:21.045Z,14.00
2022-08-09T21:00:20.376Z,13.00
2022-08-09T21:03:28.766Z,9.70
2022-08-09T21:07:11.854Z,12.00
2022-08-09T21:10:42.652Z,10.20
2022-08-09T21:14:17.317Z,11.20
2022-08-09T21:18:24.502Z,14.90
2022-08-09T21:21:52.907Z,10.60
2022-08-09T21:25:12.953Z,12.00
2022-08-09T21:28:51.827Z,8.50
2022-08-09T21:32:33.350Z,9.40
2022-08-09T21:35:56.463Z,8.60
2022-08-09T21:39:42.144Z,11.60
2022-08-09T21:43:00.720Z,11.10
2022-08-09T21:46:29.279Z,9.90
2022-08-09T21:49:49.537Z,9.50
2022-08-09T21:53:15.557Z,12.40
2022-08-09T21:56:42.998Z,12.60
2022-08-09T22:00:16.497Z,12.70
2022-08-09T22:03:48.477Z,10.10
2022-08-09T22:07:41.841Z,10.60
2022-08-09T22:12:05.733Z,9.40
2022-08-09T22:15:03.817Z,8.40
2022-08-09T22:18:32.928Z,8.10
2022-08-09T22:22:01.890Z,10.10
2022-08-09T22:26:05.461Z,8.80
2022-08-09T22:29:12.388Z,8.90
2022-08-09T22:32:44.907Z,7.70
2022-08-09T22:36:13.436Z,9.70
2022-08-09T22:39:58.793Z,6.70
2022-08-09T22:44:02.505Z,13.40
2022-08-09T22:48:14.400Z,8.30
2022-08-09T22:51:10.334Z,9.70
2022-08-09T22:54:39.414Z,8.70
2022-08-09T22:58:09.819Z,9.10
2022-08-09T23:01:49.353Z,10.50
2022-08-09T23:05:18.140Z,9.60
2022-08-09T23:09:05.032Z,9.50
2022-08-09T23:12:33.752Z,9.30
